Airfield :







YOU CAN JOIN US ON...

 
LOGIN :

Register | Disclaimer

   EN    FR    IT 

 









Legend :    VFR   Marginal VFR   IFR   Intensive IFR   Very Intensive IFR
Visi :
Ceiling :
>= 8 km
>= 3000ft
5 to 8 km
1000 to 3000 ft
1500m to 5 km
500 to 1000 ft
800 to 1500m
200 to 500 ft
< 800m
< 200 ft
Symbols :   Thunderstorms  Fog  Heavy snow  Heavy precipitations  Wind > 20 kt






- Airport Elevation : 68 ft
- IATA code : YFC


CYFC - Fredericton

CURRENT METAR :
  • 162000Z AUTO 16004KT 120V180 9SM CLR 15/02 A2999 RMK SLP157

EXPIRED METARs :
  • 161900Z AUTO VRB02KT 9SM CLR 15/00 A2999 RMK SLP158
  • 161800Z AUTO 23005KT 150V260 9SM CLR 15/01 A3001 RMK SLP166

TAF TAF CYFC
Valid from the 16 at 18:00 until the 17 at 06:00 UTC


161738Z 1618/1706 15006KT P6SM FEW240
BECMG 1702/1704 07010KT RMK FCST BASED ON AUTO OBS. NXT FCST BY 170000Z



MET'MAP, your aeronautical weather chart ! - Copyright ORBIFLY December 2007 - Disclaimer

ORBIFLY MET'MAP TEAM :

Programming & Development : Alexandra Zaïnal
Concept & Development : Baudouin d'Aumeries
Co-Development & Prog : Marc-Olivier Méhu
Technical & hardware support : Manuel Goepfert

Contact : metmap@orbifly.com




SOURCES & CREDITS :

   NOAA